sensor_id;sensor_type;location;lat;lon;timestamp;temperature;humidity
46758;DHT22;32509;47.750;-3.396;2023-10-09T00:01:07;16.70;99.90
46758;DHT22;32509;47.750;-3.396;2023-10-09T00:03:46;16.60;99.90
46758;DHT22;32509;47.750;-3.396;2023-10-09T00:06:16;16.60;99.90
46758;DHT22;32509;47.750;-3.396;2023-10-09T00:08:42;16.60;99.90
46758;DHT22;32509;47.750;-3.396;2023-10-09T00:11:15;16.60;99.90
46758;DHT22;32509;47.750;-3.396;2023-10-09T00:13:46;16.60;99.90
46758;DHT22;32509;47.750;-3.396;2023-10-09T00:16:18;16.60;99.90
46758;DHT22;32509;47.750;-3.396;2023-10-09T00:19:05;16.60;99.90
46758;DHT22;32509;47.750;-3.396;2023-10-09T00:21:46;16.60;99.90
46758;DHT22;32509;47.750;-3.396;2023-10-09T00:24:13;16.50;99.90
46758;DHT22;32509;47.750;-3.396;2023-10-09T00:26:45;16.50;99.90
46758;DHT22;32509;47.750;-3.396;2023-10-09T00:29:15;16.50;99.90
46758;DHT22;32509;47.750;-3.396;2023-10-09T00:31:49;16.50;99.90
46758;DHT22;32509;47.750;-3.396;2023-10-09T00:34:29;16.50;99.90
46758;DHT22;32509;47.750;-3.396;2023-10-09T00:36:55;16.40;99.90
46758;DHT22;32509;47.750;-3.396;2023-10-09T00:39:23;16.40;99.90
46758;DHT22;32509;47.750;-3.396;2023-10-09T00:42:04;16.40;99.90
46758;DHT22;32509;47.750;-3.396;2023-10-09T00:44:32;16.40;99.90
46758;DHT22;32509;47.750;-3.396;2023-10-09T00:47:10;16.40;99.90
46758;DHT22;32509;47.750;-3.396;2023-10-09T00:49:57;16.40;99.90
46758;DHT22;32509;47.750;-3.396;2023-10-09T00:52:29;16.40;99.90
46758;DHT22;32509;47.750;-3.396;2023-10-09T00:55:02;16.40;99.90
46758;DHT22;32509;47.750;-3.396;2023-10-09T00:57:51;16.40;99.90
46758;DHT22;32509;47.750;-3.396;2023-10-09T01:00:26;16.40;99.90
46758;DHT22;32509;47.750;-3.396;2023-10-09T01:03:12;16.40;99.90
46758;DHT22;32509;47.750;-3.396;2023-10-09T01:05:44;16.40;99.90
46758;DHT22;32509;47.750;-3.396;2023-10-09T01:08:40;16.40;99.90
46758;DHT22;32509;47.750;-3.396;2023-10-09T01:11:16;16.40;99.90
46758;DHT22;32509;47.750;-3.396;2023-10-09T01:13:55;16.30;99.90
46758;DHT22;32509;47.750;-3.396;2023-10-09T01:16:36;16.40;99.90
46758;DHT22;32509;47.750;-3.396;2023-10-09T01:19:02;16.30;99.90
46758;DHT22;32509;47.750;-3.396;2023-10-09T01:21:39;16.30;99.90
46758;DHT22;32509;47.750;-3.396;2023-10-09T01:24:05;16.30;99.90
46758;DHT22;32509;47.750;-3.396;2023-10-09T01:26:37;16.30;99.90
46758;DHT22;32509;47.750;-3.396;2023-10-09T01:29:13;16.30;99.90
46758;DHT22;32509;47.750;-3.396;2023-10-09T01:34:28;16.30;99.90
46758;DHT22;32509;47.750;-3.396;2023-10-09T01:37:13;16.30;99.90
46758;DHT22;32509;47.750;-3.396;2023-10-09T01:39:52;16.30;99.90
46758;DHT22;32509;47.750;-3.396;2023-10-09T01:42:23;16.30;99.90
46758;DHT22;32509;47.750;-3.396;2023-10-09T01:44:55;16.30;99.90
46758;DHT22;32509;47.750;-3.396;2023-10-09T01:47:23;16.30;99.90
46758;DHT22;32509;47.750;-3.396;2023-10-09T01:49:51;16.30;99.90
46758;DHT22;32509;47.750;-3.396;2023-10-09T01:52:19;16.20;99.90
46758;DHT22;32509;47.750;-3.396;2023-10-09T01:54:47;16.30;99.90
46758;DHT22;32509;47.750;-3.396;2023-10-09T01:57:17;16.20;99.90
46758;DHT22;32509;47.750;-3.396;2023-10-09T01:59:55;16.20;99.90
46758;DHT22;32509;47.750;-3.396;2023-10-09T02:02:25;16.20;99.90
46758;DHT22;32509;47.750;-3.396;2023-10-09T02:05:01;16.20;99.90
46758;DHT22;32509;47.750;-3.396;2023-10-09T02:07:39;16.20;99.90
46758;DHT22;32509;47.750;-3.396;2023-10-09T02:10:20;16.20;99.90
46758;DHT22;32509;47.750;-3.396;2023-10-09T02:12:59;16.20;99.90
46758;DHT22;32509;47.750;-3.396;2023-10-09T02:15:26;16.20;99.90
46758;DHT22;32509;47.750;-3.396;2023-10-09T02:18:16;16.20;99.90
46758;DHT22;32509;47.750;-3.396;2023-10-09T02:20:46;16.20;99.90
46758;DHT22;32509;47.750;-3.396;2023-10-09T02:23:34;16.20;99.90
46758;DHT22;32509;47.750;-3.396;2023-10-09T02:26:16;16.20;99.90
46758;DHT22;32509;47.750;-3.396;2023-10-09T02:28:55;16.20;99.90
46758;DHT22;32509;47.750;-3.396;2023-10-09T02:31:25;16.20;99.90
46758;DHT22;32509;47.750;-3.396;2023-10-09T02:33:53;16.20;99.90
46758;DHT22;32509;47.750;-3.396;2023-10-09T02:36:22;16.20;99.90
46758;DHT22;32509;47.750;-3.396;2023-10-09T02:38:48;16.10;99.90
46758;DHT22;32509;47.750;-3.396;2023-10-09T02:41:17;16.10;99.90
46758;DHT22;32509;47.750;-3.396;2023-10-09T02:43:46;16.10;99.90
46758;DHT22;32509;47.750;-3.396;2023-10-09T02:46:17;16.10;99.90
46758;DHT22;32509;47.750;-3.396;2023-10-09T02:48:47;16.10;99.90
46758;DHT22;32509;47.750;-3.396;2023-10-09T02:51:20;16.10;99.90
46758;DHT22;32509;47.750;-3.396;2023-10-09T02:53:59;16.10;99.90
46758;DHT22;32509;47.750;-3.396;2023-10-09T02:56:32;16.10;99.90
46758;DHT22;32509;47.750;-3.396;2023-10-09T02:59:09;16.10;99.90
46758;DHT22;32509;47.750;-3.396;2023-10-09T03:01:38;16.10;99.90
46758;DHT22;32509;47.750;-3.396;2023-10-09T03:04:04;16.10;99.90
46758;DHT22;32509;47.750;-3.396;2023-10-09T03:06:32;16.00;99.90
46758;DHT22;32509;47.750;-3.396;2023-10-09T03:09:00;16.10;99.90
46758;DHT22;32509;47.750;-3.396;2023-10-09T03:11:26;16.10;99.90
46758;DHT22;32509;47.750;-3.396;2023-10-09T03:13:57;16.00;99.90
46758;DHT22;32509;47.750;-3.396;2023-10-09T03:16:23;16.10;99.90
46758;DHT22;32509;47.750;-3.396;2023-10-09T03:18:50;16.10;99.90
46758;DHT22;32509;47.750;-3.396;2023-10-09T03:21:16;16.10;99.90
46758;DHT22;32509;47.750;-3.396;2023-10-09T03:23:45;16.00;99.90
46758;DHT22;32509;47.750;-3.396;2023-10-09T03:26:15;16.00;99.90
46758;DHT22;32509;47.750;-3.396;2023-10-09T03:28:46;16.00;99.90
46758;DHT22;32509;47.750;-3.396;2023-10-09T03:31:12;16.00;99.90
46758;DHT22;32509;47.750;-3.396;2023-10-09T03:33:41;16.00;99.90
46758;DHT22;32509;47.750;-3.396;2023-10-09T03:36:07;16.00;99.90
46758;DHT22;32509;47.750;-3.396;2023-10-09T03:38:37;16.00;99.90
46758;DHT22;32509;47.750;-3.396;2023-10-09T03:41:04;16.00;99.90
46758;DHT22;32509;47.750;-3.396;2023-10-09T03:43:38;16.00;99.90
46758;DHT22;32509;47.750;-3.396;2023-10-09T03:46:10;16.00;99.90
46758;DHT22;32509;47.750;-3.396;2023-10-09T03:48:58;16.00;99.90
46758;DHT22;32509;47.750;-3.396;2023-10-09T03:51:27;16.00;99.90
46758;DHT22;32509;47.750;-3.396;2023-10-09T03:53:53;16.00;99.90
46758;DHT22;32509;47.750;-3.396;2023-10-09T03:56:19;15.90;99.90
46758;DHT22;32509;47.750;-3.396;2023-10-09T03:58:47;15.90;99.90
46758;DHT22;32509;47.750;-3.396;2023-10-09T04:01:19;16.00;99.90
46758;DHT22;32509;47.750;-3.396;2023-10-09T04:03:56;15.90;99.90
46758;DHT22;32509;47.750;-3.396;2023-10-09T04:06:26;15.90;99.90
46758;DHT22;32509;47.750;-3.396;2023-10-09T04:09:03;15.90;99.90
46758;DHT22;32509;47.750;-3.396;2023-10-09T04:11:53;15.90;99.90
46758;DHT22;32509;47.750;-3.396;2023-10-09T04:14:40;15.90;99.90
46758;DHT22;32509;47.750;-3.396;2023-10-09T04:17:15;15.90;99.90
46758;DHT22;32509;47.750;-3.396;2023-10-09T04:19:47;15.90;99.90
46758;DHT22;32509;47.750;-3.396;2023-10-09T04:22:31;15.90;99.90
46758;DHT22;32509;47.750;-3.396;2023-10-09T04:25:05;15.90;99.90
46758;DHT22;32509;47.750;-3.396;2023-10-09T04:27:33;15.90;99.90
46758;DHT22;32509;47.750;-3.396;2023-10-09T04:30:02;15.90;99.90
46758;DHT22;32509;47.750;-3.396;2023-10-09T04:32:33;15.90;99.90
46758;DHT22;32509;47.750;-3.396;2023-10-09T04:35:00;15.90;99.90
46758;DHT22;32509;47.750;-3.396;2023-10-09T04:37:45;15.90;99.90
46758;DHT22;32509;47.750;-3.396;2023-10-09T04:40:18;15.90;99.90
46758;DHT22;32509;47.750;-3.396;2023-10-09T04:43:03;15.90;99.90
46758;DHT22;32509;47.750;-3.396;2023-10-09T04:45:36;15.90;99.90
46758;DHT22;32509;47.750;-3.396;2023-10-09T04:48:20;15.90;99.90
46758;DHT22;32509;47.750;-3.396;2023-10-09T04:51:06;15.80;99.90
46758;DHT22;32509;47.750;-3.396;2023-10-09T04:54:01;15.80;99.90
46758;DHT22;32509;47.750;-3.396;2023-10-09T04:56:40;15.80;99.90
46758;DHT22;32509;47.750;-3.396;2023-10-09T04:59:19;15.80;99.90
46758;DHT22;32509;47.750;-3.396;2023-10-09T05:01:45;15.80;99.90
46758;DHT22;32509;47.750;-3.396;2023-10-09T05:04:26;15.80;99.90
46758;DHT22;32509;47.750;-3.396;2023-10-09T05:07:03;15.80;99.90
46758;DHT22;32509;47.750;-3.396;2023-10-09T05:09:49;15.80;99.90
46758;DHT22;32509;47.750;-3.396;2023-10-09T05:12:21;15.80;99.90
46758;DHT22;32509;47.750;-3.396;2023-10-09T05:14:51;15.80;99.90
46758;DHT22;32509;47.750;-3.396;2023-10-09T05:17:38;15.70;99.90
46758;DHT22;32509;47.750;-3.396;2023-10-09T05:20:06;15.70;99.90
46758;DHT22;32509;47.750;-3.396;2023-10-09T05:22:50;15.70;99.90
46758;DHT22;32509;47.750;-3.396;2023-10-09T05:25:26;15.70;99.90
46758;DHT22;32509;47.750;-3.396;2023-10-09T05:28:10;15.70;99.90
46758;DHT22;32509;47.750;-3.396;2023-10-09T05:30:55;15.70;99.90
46758;DHT22;32509;47.750;-3.396;2023-10-09T05:33:32;15.70;99.90
46758;DHT22;32509;47.750;-3.396;2023-10-09T05:36:01;15.70;99.90
46758;DHT22;32509;47.750;-3.396;2023-10-09T05:38:45;15.70;99.90
46758;DHT22;32509;47.750;-3.396;2023-10-09T05:41:24;15.70;99.90
46758;DHT22;32509;47.750;-3.396;2023-10-09T05:44:09;15.70;99.90
46758;DHT22;32509;47.750;-3.396;2023-10-09T05:46:53;15.70;99.90
46758;DHT22;32509;47.750;-3.396;2023-10-09T05:49:37;15.70;99.90
46758;DHT22;32509;47.750;-3.396;2023-10-09T05:52:12;15.70;99.90
46758;DHT22;32509;47.750;-3.396;2023-10-09T05:54:57;15.60;99.90
46758;DHT22;32509;47.750;-3.396;2023-10-09T05:57:41;15.60;99.90
46758;DHT22;32509;47.750;-3.396;2023-10-09T06:00:25;15.60;99.90
46758;DHT22;32509;47.750;-3.396;2023-10-09T06:03:10;15.70;99.90
46758;DHT22;32509;47.750;-3.396;2023-10-09T06:08:37;15.60;99.90
46758;DHT22;32509;47.750;-3.396;2023-10-09T06:11:10;15.60;99.90
46758;DHT22;32509;47.750;-3.396;2023-10-09T06:13:54;15.60;99.90
46758;DHT22;32509;47.750;-3.396;2023-10-09T06:16:30;15.60;99.90
46758;DHT22;32509;47.750;-3.396;2023-10-09T06:19:15;15.60;99.90
46758;DHT22;32509;47.750;-3.396;2023-10-09T06:21:57;15.60;99.90
46758;DHT22;32509;47.750;-3.396;2023-10-09T06:24:39;15.60;99.90
46758;DHT22;32509;47.750;-3.396;2023-10-09T06:27:13;15.60;99.90
46758;DHT22;32509;47.750;-3.396;2023-10-09T06:29:49;15.60;99.90
46758;DHT22;32509;47.750;-3.396;2023-10-09T06:32:15;15.60;99.90
46758;DHT22;32509;47.750;-3.396;2023-10-09T06:34:54;15.60;99.90
46758;DHT22;32509;47.750;-3.396;2023-10-09T06:37:40;15.60;99.90
46758;DHT22;32509;47.750;-3.396;2023-10-09T06:40:26;15.60;99.90
46758;DHT22;32509;47.750;-3.396;2023-10-09T06:43:12;15.60;99.90
46758;DHT22;32509;47.750;-3.396;2023-10-09T06:45:57;15.60;99.90
46758;DHT22;32509;47.750;-3.396;2023-10-09T06:48:41;15.60;99.90
46758;DHT22;32509;47.750;-3.396;2023-10-09T06:51:13;15.60;99.90
46758;DHT22;32509;47.750;-3.396;2023-10-09T06:53:52;15.60;99.90
46758;DHT22;32509;47.750;-3.396;2023-10-09T06:56:21;15.60;99.90
46758;DHT22;32509;47.750;-3.396;2023-10-09T07:01:49;15.60;99.90
46758;DHT22;32509;47.750;-3.396;2023-10-09T07:04:34;15.60;99.90
46758;DHT22;32509;47.750;-3.396;2023-10-09T07:07:00;15.70;99.90
46758;DHT22;32509;47.750;-3.396;2023-10-09T07:09:27;15.70;99.90
46758;DHT22;32509;47.750;-3.396;2023-10-09T07:12:08;15.70;99.90
46758;DHT22;32509;47.750;-3.396;2023-10-09T07:14:51;15.70;99.90
46758;DHT22;32509;47.750;-3.396;2023-10-09T07:17:32;15.70;99.90
46758;DHT22;32509;47.750;-3.396;2023-10-09T07:20:01;15.70;99.90
46758;DHT22;32509;47.750;-3.396;2023-10-09T07:22:40;15.70;99.90
46758;DHT22;32509;47.750;-3.396;2023-10-09T07:25:19;15.70;99.90
46758;DHT22;32509;47.750;-3.396;2023-10-09T07:28:04;15.80;99.90
46758;DHT22;32509;47.750;-3.396;2023-10-09T07:30:46;15.80;99.90
46758;DHT22;32509;47.750;-3.396;2023-10-09T07:33:12;15.80;99.90
46758;DHT22;32509;47.750;-3.396;2023-10-09T07:35:40;15.80;99.90
46758;DHT22;32509;47.750;-3.396;2023-10-09T07:38:19;15.80;99.90
46758;DHT22;32509;47.750;-3.396;2023-10-09T07:40:46;15.90;99.90
46758;DHT22;32509;47.750;-3.396;2023-10-09T07:43:35;15.90;99.90
46758;DHT22;32509;47.750;-3.396;2023-10-09T07:46:11;15.90;99.90
46758;DHT22;32509;47.750;-3.396;2023-10-09T07:48:56;15.90;99.90
46758;DHT22;32509;47.750;-3.396;2023-10-09T07:51:24;15.90;99.90
46758;DHT22;32509;47.750;-3.396;2023-10-09T07:53:59;15.90;99.90
46758;DHT22;32509;47.750;-3.396;2023-10-09T07:56:35;15.90;99.90
46758;DHT22;32509;47.750;-3.396;2023-10-09T07:59:18;15.90;99.90
46758;DHT22;32509;47.750;-3.396;2023-10-09T08:01:46;16.00;99.90
46758;DHT22;32509;47.750;-3.396;2023-10-09T08:04:23;16.00;99.90
46758;DHT22;32509;47.750;-3.396;2023-10-09T08:07:14;16.10;99.90
46758;DHT22;32509;47.750;-3.396;2023-10-09T08:09:54;16.10;99.90
46758;DHT22;32509;47.750;-3.396;2023-10-09T08:12:42;16.10;99.90
46758;DHT22;32509;47.750;-3.396;2023-10-09T08:15:40;16.10;99.90
46758;DHT22;32509;47.750;-3.396;2023-10-09T08:18:18;16.20;99.90
46758;DHT22;32509;47.750;-3.396;2023-10-09T08:21:06;16.20;99.90
46758;DHT22;32509;47.750;-3.396;2023-10-09T08:23:31;16.30;99.90
46758;DHT22;32509;47.750;-3.396;2023-10-09T08:26:16;16.30;99.90
46758;DHT22;32509;47.750;-3.396;2023-10-09T08:28:55;16.30;99.90
46758;DHT22;32509;47.750;-3.396;2023-10-09T08:31:41;16.30;99.90
46758;DHT22;32509;47.750;-3.396;2023-10-09T08:34:22;16.30;99.90
46758;DHT22;32509;47.750;-3.396;2023-10-09T08:36:52;16.40;99.90
46758;DHT22;32509;47.750;-3.396;2023-10-09T08:39:21;16.40;99.90
46758;DHT22;32509;47.750;-3.396;2023-10-09T08:41:55;16.40;99.90
46758;DHT22;32509;47.750;-3.396;2023-10-09T08:44:25;16.50;99.90
46758;DHT22;32509;47.750;-3.396;2023-10-09T08:46:57;16.50;99.90
46758;DHT22;32509;47.750;-3.396;2023-10-09T08:49:24;16.60;99.90
46758;DHT22;32509;47.750;-3.396;2023-10-09T08:51:51;16.60;99.90
46758;DHT22;32509;47.750;-3.396;2023-10-09T08:54:18;16.60;99.90
46758;DHT22;32509;47.750;-3.396;2023-10-09T08:56:48;16.60;99.90
46758;DHT22;32509;47.750;-3.396;2023-10-09T08:59:20;16.70;99.90
46758;DHT22;32509;47.750;-3.396;2023-10-09T09:01:46;16.70;99.90
46758;DHT22;32509;47.750;-3.396;2023-10-09T09:04:35;16.70;99.90
46758;DHT22;32509;47.750;-3.396;2023-10-09T09:07:04;16.80;99.90
46758;DHT22;32509;47.750;-3.396;2023-10-09T09:09:31;16.80;99.90
46758;DHT22;32509;47.750;-3.396;2023-10-09T09:11:59;16.80;99.90
46758;DHT22;32509;47.750;-3.396;2023-10-09T09:14:36;16.80;99.90
46758;DHT22;32509;47.750;-3.396;2023-10-09T09:17:03;16.90;99.90
46758;DHT22;32509;47.750;-3.396;2023-10-09T09:19:32;16.90;99.90
46758;DHT22;32509;47.750;-3.396;2023-10-09T09:21:58;17.00;99.90
46758;DHT22;32509;47.750;-3.396;2023-10-09T09:24:37;17.00;99.90
46758;DHT22;32509;47.750;-3.396;2023-10-09T09:27:04;17.00;99.90
46758;DHT22;32509;47.750;-3.396;2023-10-09T09:29:39;17.00;99.90
46758;DHT22;32509;47.750;-3.396;2023-10-09T09:32:09;17.00;99.90
46758;DHT22;32509;47.750;-3.396;2023-10-09T09:34:51;17.10;99.90
46758;DHT22;32509;47.750;-3.396;2023-10-09T09:37:24;17.10;99.90
46758;DHT22;32509;47.750;-3.396;2023-10-09T09:40:16;17.10;99.90
46758;DHT22;32509;47.750;-3.396;2023-10-09T09:43:13;17.20;99.90
46758;DHT22;32509;47.750;-3.396;2023-10-09T09:45:47;17.10;99.90
46758;DHT22;32509;47.750;-3.396;2023-10-09T09:48:15;17.20;99.90
46758;DHT22;32509;47.750;-3.396;2023-10-09T09:50:42;17.20;99.90
46758;DHT22;32509;47.750;-3.396;2023-10-09T09:53:16;17.20;99.90
46758;DHT22;32509;47.750;-3.396;2023-10-09T09:55:54;17.20;99.90
46758;DHT22;32509;47.750;-3.396;2023-10-09T09:58:23;17.30;99.90
46758;DHT22;32509;47.750;-3.396;2023-10-09T10:01:00;17.30;99.90
46758;DHT22;32509;47.750;-3.396;2023-10-09T10:03:31;17.30;99.90
46758;DHT22;32509;47.750;-3.396;2023-10-09T10:06:00;17.40;99.90
46758;DHT22;32509;47.750;-3.396;2023-10-09T10:08:31;17.40;99.90
46758;DHT22;32509;47.750;-3.396;2023-10-09T10:10:59;17.40;99.90
46758;DHT22;32509;47.750;-3.396;2023-10-09T10:16:18;17.50;99.90
46758;DHT22;32509;47.750;-3.396;2023-10-09T10:19:09;17.50;99.90
46758;DHT22;32509;47.750;-3.396;2023-10-09T10:21:41;17.50;99.90
46758;DHT22;32509;47.750;-3.396;2023-10-09T10:29:44;17.60;99.90
46758;DHT22;32509;47.750;-3.396;2023-10-09T10:32:17;17.60;99.90
46758;DHT22;32509;47.750;-3.396;2023-10-09T10:37:37;17.60;99.90
46758;DHT22;32509;47.750;-3.396;2023-10-09T10:40:09;17.60;99.90
46758;DHT22;32509;47.750;-3.396;2023-10-09T10:43:01;17.60;99.90
46758;DHT22;32509;47.750;-3.396;2023-10-09T10:45:41;17.70;99.90
46758;DHT22;32509;47.750;-3.396;2023-10-09T10:48:10;17.70;99.90
46758;DHT22;32509;47.750;-3.396;2023-10-09T10:50:57;17.70;99.90
46758;DHT22;32509;47.750;-3.396;2023-10-09T10:53:24;17.80;99.90
46758;DHT22;32509;47.750;-3.396;2023-10-09T10:55:58;17.80;99.90
46758;DHT22;32509;47.750;-3.396;2023-10-09T10:58:51;17.90;99.90
46758;DHT22;32509;47.750;-3.396;2023-10-09T11:01:35;17.90;99.90
46758;DHT22;32509;47.750;-3.396;2023-10-09T11:04:21;17.90;99.90
46758;DHT22;32509;47.750;-3.396;2023-10-09T11:06:54;17.90;99.90
46758;DHT22;32509;47.750;-3.396;2023-10-09T11:09:49;18.00;99.90
46758;DHT22;32509;47.750;-3.396;2023-10-09T11:15:12;18.00;99.90
46758;DHT22;32509;47.750;-3.396;2023-10-09T11:18:06;18.00;99.90
46758;DHT22;32509;47.750;-3.396;2023-10-09T11:20:43;18.10;99.90
46758;DHT22;32509;47.750;-3.396;2023-10-09T11:23:22;18.10;99.90
46758;DHT22;32509;47.750;-3.396;2023-10-09T11:26:02;18.20;99.90
46758;DHT22;32509;47.750;-3.396;2023-10-09T11:29:14;18.20;99.90
46758;DHT22;32509;47.750;-3.396;2023-10-09T11:32:04;18.20;99.90
46758;DHT22;32509;47.750;-3.396;2023-10-09T11:34:31;18.20;99.90
46758;DHT22;32509;47.750;-3.396;2023-10-09T11:37:12;18.20;99.90
46758;DHT22;32509;47.750;-3.396;2023-10-09T11:39:41;18.30;99.90
46758;DHT22;32509;47.750;-3.396;2023-10-09T11:42:19;18.30;99.90
46758;DHT22;32509;47.750;-3.396;2023-10-09T11:45:02;18.30;99.90
46758;DHT22;32509;47.750;-3.396;2023-10-09T11:47:45;18.30;99.90
46758;DHT22;32509;47.750;-3.396;2023-10-09T11:50:42;18.30;99.90
46758;DHT22;32509;47.750;-3.396;2023-10-09T11:53:10;18.30;99.90
46758;DHT22;32509;47.750;-3.396;2023-10-09T11:56:01;18.40;99.90
46758;DHT22;32509;47.750;-3.396;2023-10-09T11:58:27;18.40;99.90
46758;DHT22;32509;47.750;-3.396;2023-10-09T12:01:09;18.40;99.90
46758;DHT22;32509;47.750;-3.396;2023-10-09T12:03:41;18.40;99.90
46758;DHT22;32509;47.750;-3.396;2023-10-09T12:06:08;18.40;99.90
46758;DHT22;32509;47.750;-3.396;2023-10-09T12:08:38;18.40;99.90
46758;DHT22;32509;47.750;-3.396;2023-10-09T12:11:07;18.40;99.90
46758;DHT22;32509;47.750;-3.396;2023-10-09T12:13:37;18.50;99.90
46758;DHT22;32509;47.750;-3.396;2023-10-09T12:16:04;18.50;99.90
46758;DHT22;32509;47.750;-3.396;2023-10-09T12:18:41;18.40;99.90
46758;DHT22;32509;47.750;-3.396;2023-10-09T12:21:08;18.50;99.90
46758;DHT22;32509;47.750;-3.396;2023-10-09T12:23:41;18.50;99.90
46758;DHT22;32509;47.750;-3.396;2023-10-09T12:26:09;18.40;99.90
46758;DHT22;32509;47.750;-3.396;2023-10-09T12:28:40;18.40;99.90
46758;DHT22;32509;47.750;-3.396;2023-10-09T12:31:06;18.40;99.90
46758;DHT22;32509;47.750;-3.396;2023-10-09T12:33:32;18.40;99.90
46758;DHT22;32509;47.750;-3.396;2023-10-09T12:35:58;18.40;99.90
46758;DHT22;32509;47.750;-3.396;2023-10-09T12:38:28;18.40;99.90
46758;DHT22;32509;47.750;-3.396;2023-10-09T12:41:06;18.40;99.90
46758;DHT22;32509;47.750;-3.396;2023-10-09T12:43:53;18.30;99.90
46758;DHT22;32509;47.750;-3.396;2023-10-09T12:46:19;18.30;99.90
46758;DHT22;32509;47.750;-3.396;2023-10-09T12:48:57;18.30;99.90
46758;DHT22;32509;47.750;-3.396;2023-10-09T12:51:23;18.40;99.90
46758;DHT22;32509;47.750;-3.396;2023-10-09T12:53:55;18.40;99.90
46758;DHT22;32509;47.750;-3.396;2023-10-09T12:56:26;18.30;99.90
46758;DHT22;32509;47.750;-3.396;2023-10-09T12:58:59;18.30;99.90
46758;DHT22;32509;47.750;-3.396;2023-10-09T13:01:27;18.30;99.90
46758;DHT22;32509;47.750;-3.396;2023-10-09T13:04:00;18.30;99.90
46758;DHT22;32509;47.750;-3.396;2023-10-09T13:06:27;18.30;99.90
46758;DHT22;32509;47.750;-3.396;2023-10-09T13:08:53;18.40;99.90
46758;DHT22;32509;47.750;-3.396;2023-10-09T13:11:21;18.30;99.90
46758;DHT22;32509;47.750;-3.396;2023-10-09T13:13:51;18.30;99.90
46758;DHT22;32509;47.750;-3.396;2023-10-09T13:16:18;18.30;99.90
46758;DHT22;32509;47.750;-3.396;2023-10-09T13:18:55;18.40;99.90
46758;DHT22;32509;47.750;-3.396;2023-10-09T13:21:28;18.40;99.90
46758;DHT22;32509;47.750;-3.396;2023-10-09T13:23:58;18.40;99.90
46758;DHT22;32509;47.750;-3.396;2023-10-09T13:26:26;18.30;99.90
46758;DHT22;32509;47.750;-3.396;2023-10-09T13:29:01;18.30;99.90
46758;DHT22;32509;47.750;-3.396;2023-10-09T13:31:27;18.30;99.90
46758;DHT22;32509;47.750;-3.396;2023-10-09T13:33:54;18.30;99.90
46758;DHT22;32509;47.750;-3.396;2023-10-09T13:36:25;18.30;99.90
46758;DHT22;32509;47.750;-3.396;2023-10-09T13:38:59;18.30;99.90
46758;DHT22;32509;47.750;-3.396;2023-10-09T13:41:49;18.40;99.90
46758;DHT22;32509;47.750;-3.396;2023-10-09T13:44:16;18.40;99.90
46758;DHT22;32509;47.750;-3.396;2023-10-09T13:46:42;18.30;99.90
46758;DHT22;32509;47.750;-3.396;2023-10-09T13:49:11;18.30;99.90
46758;DHT22;32509;47.750;-3.396;2023-10-09T13:51:43;18.30;99.90
46758;DHT22;32509;47.750;-3.396;2023-10-09T13:54:13;18.30;99.90
46758;DHT22;32509;47.750;-3.396;2023-10-09T13:56:48;18.30;99.90
46758;DHT22;32509;47.750;-3.396;2023-10-09T13:59:19;18.30;99.90
46758;DHT22;32509;47.750;-3.396;2023-10-09T14:01:47;18.20;99.90
46758;DHT22;32509;47.750;-3.396;2023-10-09T14:04:13;18.30;99.90
46758;DHT22;32509;47.750;-3.396;2023-10-09T14:06:44;18.30;99.90
46758;DHT22;32509;47.750;-3.396;2023-10-09T14:09:11;18.30;99.90
46758;DHT22;32509;47.750;-3.396;2023-10-09T14:11:54;18.30;99.90
46758;DHT22;32509;47.750;-3.396;2023-10-09T14:14:37;18.30;99.90
46758;DHT22;32509;47.750;-3.396;2023-10-09T14:17:10;18.20;99.90
46758;DHT22;32509;47.750;-3.396;2023-10-09T14:22:06;18.30;99.90
46758;DHT22;32509;47.750;-3.396;2023-10-09T14:24:33;18.30;99.90
46758;DHT22;32509;47.750;-3.396;2023-10-09T14:27:03;18.30;99.90
46758;DHT22;32509;47.750;-3.396;2023-10-09T14:29:36;18.30;99.90
46758;DHT22;32509;47.750;-3.396;2023-10-09T14:32:03;18.20;99.90
46758;DHT22;32509;47.750;-3.396;2023-10-09T14:34:29;18.20;99.90
46758;DHT22;32509;47.750;-3.396;2023-10-09T14:37:00;18.30;99.90
46758;DHT22;32509;47.750;-3.396;2023-10-09T14:39:29;18.30;99.90
46758;DHT22;32509;47.750;-3.396;2023-10-09T14:41:55;18.30;99.90
46758;DHT22;32509;47.750;-3.396;2023-10-09T14:44:24;18.30;99.90
46758;DHT22;32509;47.750;-3.396;2023-10-09T14:46:49;18.30;99.90
46758;DHT22;32509;47.750;-3.396;2023-10-09T14:49:17;18.30;99.90
46758;DHT22;32509;47.750;-3.396;2023-10-09T14:51:47;18.30;99.90
46758;DHT22;32509;47.750;-3.396;2023-10-09T14:54:13;18.30;99.90
46758;DHT22;32509;47.750;-3.396;2023-10-09T14:56:44;18.30;99.90
46758;DHT22;32509;47.750;-3.396;2023-10-09T14:59:11;18.30;99.90
46758;DHT22;32509;47.750;-3.396;2023-10-09T15:01:38;18.30;99.90
46758;DHT22;32509;47.750;-3.396;2023-10-09T15:04:04;18.30;99.90
46758;DHT22;32509;47.750;-3.396;2023-10-09T15:06:30;18.30;99.90
46758;DHT22;32509;47.750;-3.396;2023-10-09T15:08:57;18.30;99.90
46758;DHT22;32509;47.750;-3.396;2023-10-09T15:11:34;18.30;99.90
46758;DHT22;32509;47.750;-3.396;2023-10-09T15:14:00;18.30;99.90
46758;DHT22;32509;47.750;-3.396;2023-10-09T15:16:26;18.30;99.90
46758;DHT22;32509;47.750;-3.396;2023-10-09T15:18:54;18.30;99.90
46758;DHT22;32509;47.750;-3.396;2023-10-09T15:21:22;18.40;99.90
46758;DHT22;32509;47.750;-3.396;2023-10-09T15:23:55;18.40;99.90
46758;DHT22;32509;47.750;-3.396;2023-10-09T15:26:21;18.30;99.90
46758;DHT22;32509;47.750;-3.396;2023-10-09T15:28:50;18.40;99.90
46758;DHT22;32509;47.750;-3.396;2023-10-09T15:31:16;18.40;99.90
46758;DHT22;32509;47.750;-3.396;2023-10-09T15:33:42;18.50;99.90
46758;DHT22;32509;47.750;-3.396;2023-10-09T15:36:12;18.40;99.90
46758;DHT22;32509;47.750;-3.396;2023-10-09T15:38:38;18.50;99.90
46758;DHT22;32509;47.750;-3.396;2023-10-09T15:41:04;18.50;99.90
46758;DHT22;32509;47.750;-3.396;2023-10-09T15:43:32;18.50;99.90
46758;DHT22;32509;47.750;-3.396;2023-10-09T15:45:59;18.50;99.90
46758;DHT22;32509;47.750;-3.396;2023-10-09T15:48:25;18.50;99.90
46758;DHT22;32509;47.750;-3.396;2023-10-09T15:50:51;18.50;99.90
46758;DHT22;32509;47.750;-3.396;2023-10-09T15:53:18;18.50;99.90
46758;DHT22;32509;47.750;-3.396;2023-10-09T15:55:44;18.50;99.90
46758;DHT22;32509;47.750;-3.396;2023-10-09T15:58:11;18.50;99.90
46758;DHT22;32509;47.750;-3.396;2023-10-09T16:00:37;18.50;99.90
46758;DHT22;32509;47.750;-3.396;2023-10-09T16:03:04;18.50;99.90
46758;DHT22;32509;47.750;-3.396;2023-10-09T16:05:34;18.50;99.90
46758;DHT22;32509;47.750;-3.396;2023-10-09T16:08:02;18.50;99.90
46758;DHT22;32509;47.750;-3.396;2023-10-09T16:10:29;18.50;99.90
46758;DHT22;32509;47.750;-3.396;2023-10-09T16:13:00;18.50;99.90
46758;DHT22;32509;47.750;-3.396;2023-10-09T16:15:28;18.50;99.90
46758;DHT22;32509;47.750;-3.396;2023-10-09T16:17:54;18.50;99.90
46758;DHT22;32509;47.750;-3.396;2023-10-09T16:20:34;18.50;99.90
46758;DHT22;32509;47.750;-3.396;2023-10-09T16:23:05;18.50;99.90